createdAt,value
2023-02-19T00:01:35.644Z,12.98
2023-02-19T00:04:10.192Z,10.48
2023-02-19T00:06:37.169Z,11.15
2023-02-19T00:09:04.775Z,12.90
2023-02-19T00:11:34.006Z,13.73
2023-02-19T00:14:02.437Z,11.82
2023-02-19T00:16:32.292Z,12.55
2023-02-19T00:19:00.525Z,10.63
2023-02-19T00:21:28.063Z,13.20
2023-02-19T00:23:57.950Z,9.98
2023-02-19T00:26:25.263Z,11.07
2023-02-19T00:28:53.720Z,9.05
2023-02-19T00:31:27.645Z,9.00
2023-02-19T00:33:57.654Z,9.68
2023-02-19T00:36:26.095Z,9.88
2023-02-19T00:38:52.879Z,10.05
2023-02-19T00:41:21.603Z,9.70
2023-02-19T00:43:49.568Z,10.63
2023-02-19T00:46:22.436Z,11.65
2023-02-19T00:48:49.289Z,10.20
2023-02-19T00:51:16.169Z,10.10
2023-02-19T00:53:43.551Z,10.57
2023-02-19T00:56:10.965Z,9.88
2023-02-19T00:58:38.405Z,11.40
2023-02-19T01:01:06.665Z,9.82
2023-02-19T01:03:34.934Z,8.27
2023-02-19T01:06:02.251Z,7.15
2023-02-19T01:08:31.179Z,6.85
2023-02-19T01:11:00.941Z,6.82
2023-02-19T01:13:28.519Z,9.90
2023-02-19T01:16:17.387Z,7.63
2023-02-19T01:18:45.129Z,9.15
2023-02-19T01:21:17.795Z,8.13
2023-02-19T01:23:46.666Z,7.35
2023-02-19T01:26:16.949Z,5.50
2023-02-19T01:28:44.948Z,5.63
2023-02-19T01:31:17.745Z,4.43
2023-02-19T01:33:49.340Z,4.10
2023-02-19T01:36:16.946Z,4.50
2023-02-19T01:38:44.522Z,4.85
2023-02-19T01:41:17.310Z,5.00
2023-02-19T01:44:09.125Z,5.03
2023-02-19T01:46:44.360Z,5.13
2023-02-19T01:49:18.749Z,4.78
2023-02-19T01:51:49.508Z,5.35
2023-02-19T01:54:22.722Z,5.35
2023-02-19T01:56:50.409Z,5.55
2023-02-19T01:59:18.920Z,8.15
2023-02-19T02:01:46.090Z,7.85
2023-02-19T02:04:14.875Z,7.00
2023-02-19T02:06:57.376Z,5.95
2023-02-19T02:09:47.287Z,5.32
2023-02-19T02:12:14.470Z,5.40
2023-02-19T02:14:45.457Z,6.05
2023-02-19T02:17:12.643Z,5.95
2023-02-19T02:20:01.160Z,5.95
2023-02-19T02:22:43.381Z,5.63
2023-02-19T02:25:52.759Z,6.75
2023-02-19T02:28:37.221Z,5.70
2023-02-19T02:31:14.167Z,5.35
2023-02-19T02:34:04.870Z,5.75
2023-02-19T02:36:43.607Z,5.43
2023-02-19T02:39:17.549Z,4.75
2023-02-19T02:42:09.630Z,5.50
2023-02-19T02:44:38.227Z,5.97
2023-02-19T02:47:07.316Z,6.80
2023-02-19T02:49:55.446Z,6.05
2023-02-19T02:52:41.379Z,6.28
2023-02-19T02:55:11.089Z,5.93
2023-02-19T02:57:38.812Z,6.05
2023-02-19T03:00:06.499Z,5.45
2023-02-19T03:02:33.825Z,5.63
2023-02-19T03:05:24.363Z,5.15
2023-02-19T03:08:07.592Z,5.53
2023-02-19T03:10:41.762Z,6.78
2023-02-19T03:13:35.289Z,6.35
2023-02-19T03:16:28.696Z,7.55
2023-02-19T03:19:32.134Z,6.43
2023-02-19T03:22:22.800Z,5.90
2023-02-19T03:25:18.193Z,6.07
2023-02-19T03:27:48.405Z,6.25
2023-02-19T03:30:20.816Z,6.05
2023-02-19T03:33:03.088Z,5.75
2023-02-19T03:35:34.164Z,5.65
2023-02-19T03:38:04.929Z,5.70
2023-02-19T03:40:44.058Z,4.70
2023-02-19T03:43:23.625Z,5.85
2023-02-19T03:46:23.355Z,5.40
2023-02-19T03:49:06.608Z,5.32
2023-02-19T03:51:43.305Z,4.85
2023-02-19T03:54:16.221Z,4.80
2023-02-19T03:56:58.686Z,5.80
2023-02-19T03:59:37.555Z,5.10
2023-02-19T04:02:13.623Z,4.75
2023-02-19T04:04:56.403Z,5.43
2023-02-19T04:07:25.642Z,6.53
2023-02-19T04:09:53.507Z,5.57
2023-02-19T04:12:23.263Z,5.20
2023-02-19T04:15:07.151Z,5.03
2023-02-19T04:17:42.499Z,5.47
2023-02-19T04:20:11.876Z,6.88
2023-02-19T04:22:40.106Z,5.43
2023-02-19T04:25:08.184Z,5.80
2023-02-19T04:27:44.455Z,7.03
2023-02-19T04:30:13.701Z,6.35
2023-02-19T04:32:40.415Z,5.68
2023-02-19T04:35:07.253Z,6.07
2023-02-19T04:37:33.985Z,6.22
2023-02-19T04:40:00.842Z,5.38
2023-02-19T04:42:27.642Z,5.70
2023-02-19T04:44:54.350Z,6.32
2023-02-19T04:47:21.062Z,5.60
2023-02-19T04:49:47.947Z,5.57
2023-02-19T04:52:14.979Z,5.75
2023-02-19T04:54:41.731Z,5.82
2023-02-19T04:57:08.594Z,5.10
2023-02-19T04:59:35.457Z,5.07
2023-02-19T05:02:02.166Z,5.18
2023-02-19T05:04:28.976Z,5.38
2023-02-19T05:06:55.856Z,5.10
2023-02-19T05:09:22.636Z,6.97
2023-02-19T05:11:49.448Z,8.43
2023-02-19T05:14:17.218Z,9.40
2023-02-19T05:16:43.991Z,7.80
2023-02-19T05:19:13.842Z,9.35
2023-02-19T05:21:41.043Z,9.00
2023-02-19T05:24:08.340Z,11.02
2023-02-19T05:26:35.576Z,11.00
2023-02-19T05:29:02.774Z,9.02
2023-02-19T05:31:30.020Z,8.50
2023-02-19T05:33:57.002Z,11.52
2023-02-19T05:36:24.340Z,11.45
2023-02-19T05:38:55.212Z,11.35
2023-02-19T05:41:24.820Z,12.18
2023-02-19T05:43:51.910Z,10.35
2023-02-19T05:46:21.682Z,8.85
2023-02-19T05:48:49.316Z,8.77
2023-02-19T05:51:18.433Z,8.35
2023-02-19T05:53:46.211Z,8.73
2023-02-19T05:56:31.271Z,9.88
2023-02-19T05:58:58.416Z,11.20
2023-02-19T06:01:28.443Z,11.10
2023-02-19T06:03:57.483Z,11.13
2023-02-19T06:06:26.221Z,12.13
2023-02-19T06:08:53.428Z,12.75
2023-02-19T06:11:20.641Z,18.17
2023-02-19T06:13:49.427Z,21.23
2023-02-19T06:16:17.831Z,27.73
2023-02-19T06:18:45.237Z,38.28
2023-02-19T06:21:12.603Z,31.38
2023-02-19T06:23:39.897Z,32.42
2023-02-19T06:26:06.681Z,29.42
2023-02-19T06:28:33.614Z,25.52
2023-02-19T06:31:00.657Z,19.98
2023-02-19T06:33:28.442Z,14.52
2023-02-19T06:35:58.753Z,10.75
2023-02-19T06:38:25.651Z,12.30
2023-02-19T06:40:52.527Z,11.35
2023-02-19T06:43:19.523Z,12.32
2023-02-19T06:45:46.899Z,13.43
2023-02-19T06:48:13.754Z,12.40
2023-02-19T06:50:40.421Z,12.15
2023-02-19T06:53:09.031Z,16.92
2023-02-19T06:55:35.996Z,19.00
2023-02-19T06:58:02.757Z,19.00
2023-02-19T07:00:29.840Z,15.77
2023-02-19T07:02:56.806Z,18.13
2023-02-19T07:05:23.707Z,17.65
2023-02-19T07:07:50.625Z,19.23
2023-02-19T07:10:18.013Z,18.67
2023-02-19T07:12:44.831Z,15.70
2023-02-19T07:15:11.556Z,14.68
2023-02-19T07:17:38.307Z,17.17
2023-02-19T07:20:05.246Z,14.10
2023-02-19T07:22:32.016Z,12.13
2023-02-19T07:24:58.804Z,11.95
2023-02-19T07:27:25.539Z,12.15
2023-02-19T07:29:52.414Z,10.63
2023-02-19T07:32:19.313Z,12.23
2023-02-19T07:34:45.966Z,11.82
2023-02-19T07:37:12.821Z,11.35
2023-02-19T07:39:39.664Z,11.05
2023-02-19T07:42:06.632Z,11.52
2023-02-19T07:44:33.622Z,10.70
2023-02-19T07:47:00.388Z,11.93
2023-02-19T07:49:27.162Z,13.18
2023-02-19T07:51:53.960Z,16.45
2023-02-19T07:54:20.717Z,18.50
2023-02-19T07:56:47.524Z,17.65
2023-02-19T07:59:15.898Z,16.75
2023-02-19T08:02:01.279Z,17.00
2023-02-19T08:04:28.095Z,19.35
2023-02-19T08:06:54.833Z,20.40
2023-02-19T08:09:21.638Z,22.55
2023-02-19T08:12:07.071Z,21.95
2023-02-19T08:14:34.059Z,19.05
2023-02-19T08:17:01.078Z,25.88
2023-02-19T08:19:28.067Z,17.42
2023-02-19T08:21:54.904Z,16.40
2023-02-19T08:24:21.797Z,12.57
2023-02-19T08:26:48.661Z,11.68
2023-02-19T08:29:15.455Z,12.18
2023-02-19T08:31:42.334Z,18.58
2023-02-19T08:34:09.219Z,16.33
2023-02-19T08:36:35.957Z,11.25
2023-02-19T08:39:02.941Z,11.48
2023-02-19T08:41:29.744Z,10.40
2023-02-19T08:43:56.719Z,10.40
2023-02-19T08:46:23.685Z,10.10
2023-02-19T08:48:50.635Z,10.98
2023-02-19T08:51:18.990Z,11.60
2023-02-19T08:53:46.198Z,12.27
2023-02-19T08:56:18.630Z,10.18
2023-02-19T08:58:45.844Z,11.10
2023-02-19T09:01:15.558Z,10.18
2023-02-19T09:03:42.688Z,10.38
2023-02-19T09:06:17.929Z,11.73
2023-02-19T09:08:45.111Z,10.10
2023-02-19T09:11:12.684Z,10.25
2023-02-19T09:13:39.755Z,10.23
2023-02-19T09:16:06.936Z,10.93
2023-02-19T09:18:33.898Z,11.55
2023-02-19T09:21:02.043Z,11.27
2023-02-19T09:23:29.163Z,11.27
2023-02-19T09:26:00.288Z,11.45
2023-02-19T09:28:28.265Z,12.02
2023-02-19T09:30:55.428Z,13.75
2023-02-19T09:33:22.345Z,13.38
2023-02-19T09:35:49.153Z,12.40
2023-02-19T09:38:16.095Z,14.45
2023-02-19T09:40:42.959Z,11.45
2023-02-19T09:43:16.814Z,11.15
2023-02-19T09:45:43.863Z,14.07
2023-02-19T09:48:12.587Z,12.48
2023-02-19T09:50:45.888Z,11.43
2023-02-19T09:53:29.808Z,12.85
2023-02-19T09:55:56.935Z,12.05
2023-02-19T09:58:30.106Z,19.58
2023-02-19T10:01:00.922Z,16.27
2023-02-19T10:03:33.713Z,15.52
2023-02-19T10:06:14.421Z,16.38
2023-02-19T10:08:41.740Z,16.52
2023-02-19T10:11:12.213Z,16.63
2023-02-19T10:13:47.497Z,16.58
2023-02-19T10:16:19.454Z,16.42
2023-02-19T10:18:49.739Z,17.00
2023-02-19T10:21:24.633Z,20.33
2023-02-19T10:23:57.553Z,18.30
2023-02-19T10:26:25.177Z,18.95
2023-02-19T10:28:55.585Z,17.17
2023-02-19T10:31:24.991Z,15.48
2023-02-19T10:33:56.993Z,19.42
2023-02-19T10:36:39.196Z,20.08
2023-02-19T10:39:33.464Z,18.80
2023-02-19T10:42:00.574Z,22.27
2023-02-19T10:44:42.894Z,24.73
2023-02-19T10:47:18.095Z,27.25
2023-02-19T10:49:48.892Z,23.67
2023-02-19T10:52:27.150Z,24.80
2023-02-19T10:55:13.253Z,31.52
2023-02-19T10:57:40.624Z,24.55
2023-02-19T11:00:16.405Z,23.45
2023-02-19T11:02:44.414Z,29.08
2023-02-19T11:05:17.147Z,38.83
2023-02-19T11:07:57.997Z,39.85
2023-02-19T11:10:49.530Z,22.85
2023-02-19T11:13:31.251Z,22.38
2023-02-19T11:15:59.131Z,23.52
2023-02-19T11:18:29.299Z,40.67
2023-02-19T11:20:59.236Z,22.23
2023-02-19T11:23:45.797Z,19.50
2023-02-19T11:26:28.051Z,15.45
2023-02-19T11:29:02.825Z,13.80
2023-02-19T11:31:35.510Z,12.88
2023-02-19T11:34:14.574Z,12.52
2023-02-19T11:36:42.919Z,11.10
2023-02-19T11:39:15.812Z,17.05
2023-02-19T11:42:10.680Z,17.23
2023-02-19T11:45:05.921Z,15.23
2023-02-19T11:47:51.268Z,13.30
2023-02-19T11:50:31.157Z,10.63
2023-02-19T11:53:30.611Z,6.68
2023-02-19T11:56:03.582Z,7.10
2023-02-19T11:58:39.058Z,12.57
2023-02-19T12:01:17.366Z,8.05
2023-02-19T12:04:03.255Z,6.90
2023-02-19T12:07:11.272Z,5.97
2023-02-19T12:10:09.196Z,6.85
2023-02-19T12:13:10.045Z,6.95
2023-02-19T12:15:45.646Z,6.70
2023-02-19T12:18:41.234Z,9.35
2023-02-19T12:21:26.399Z,6.60
2023-02-19T12:24:23.522Z,6.75
2023-02-19T12:27:11.379Z,8.30
2023-02-19T12:29:51.074Z,8.18
2023-02-19T12:32:41.252Z,7.57
2023-02-19T12:35:35.716Z,6.32
2023-02-19T12:38:35.909Z,7.60
2023-02-19T12:41:06.191Z,7.90
2023-02-19T12:43:34.838Z,8.60
2023-02-19T12:46:28.180Z,9.07
2023-02-19T12:49:00.562Z,9.10
2023-02-19T12:51:36.647Z,8.93
2023-02-19T12:54:21.052Z,7.53
2023-02-19T12:56:55.465Z,6.70
2023-02-19T12:59:28.816Z,6.60
2023-02-19T13:02:33.229Z,6.97
2023-02-19T13:05:14.411Z,7.35
2023-02-19T13:08:07.977Z,7.28
2023-02-19T13:11:07.170Z,6.40
2023-02-19T13:13:51.654Z,6.47
2023-02-19T13:16:21.128Z,5.28
2023-02-19T13:18:54.886Z,6.35
2023-02-19T13:21:43.007Z,6.22
2023-02-19T13:24:16.881Z,6.05
2023-02-19T13:27:14.033Z,5.60
2023-02-19T13:29:51.409Z,5.57
2023-02-19T13:32:38.732Z,6.07
2023-02-19T13:35:32.957Z,6.15
2023-02-19T13:38:04.331Z,5.80
2023-02-19T13:40:33.323Z,6.10
2023-02-19T13:43:03.633Z,6.28
2023-02-19T13:45:43.950Z,5.72
2023-02-19T13:48:14.022Z,6.32
2023-02-19T13:50:41.720Z,5.18
2023-02-19T13:53:45.284Z,4.93
2023-02-19T13:56:30.301Z,6.07
2023-02-19T13:58:58.464Z,5.78
2023-02-19T14:01:50.390Z,6.28
2023-02-19T14:04:40.283Z,6.50
2023-02-19T14:07:07.011Z,5.68
2023-02-19T14:09:40.057Z,8.10
2023-02-19T14:12:10.417Z,5.40
2023-02-19T14:14:39.352Z,5.70
2023-02-19T14:17:08.861Z,5.90
2023-02-19T14:19:41.731Z,6.15
2023-02-19T14:22:52.038Z,5.30
2023-02-19T14:25:30.822Z,5.30
2023-02-19T14:28:22.162Z,5.43
2023-02-19T14:30:48.959Z,5.95
2023-02-19T14:33:23.080Z,5.15
2023-02-19T14:35:55.495Z,6.10
2023-02-19T14:38:29.828Z,6.10
2023-02-19T14:40:57.724Z,6.50
2023-02-19T14:43:26.375Z,7.18
2023-02-19T14:46:01.338Z,6.60
2023-02-19T14:48:35.208Z,5.85
2023-02-19T14:51:13.264Z,6.28
2023-02-19T14:53:45.011Z,5.88
2023-02-19T14:56:23.579Z,6.25
2023-02-19T14:59:12.367Z,6.28
2023-02-19T15:01:40.239Z,8.15
2023-02-19T15:04:21.201Z,5.65
2023-02-19T15:06:48.310Z,6.28
2023-02-19T15:09:16.791Z,7.00
2023-02-19T15:11:44.118Z,8.43
2023-02-19T15:14:21.465Z,7.57
2023-02-19T15:16:48.906Z,6.35
2023-02-19T15:19:17.153Z,8.25
2023-02-19T15:21:47.947Z,6.10
2023-02-19T15:26:47.342Z,7.03
2023-02-19T15:29:16.829Z,10.65
2023-02-19T15:31:53.012Z,15.45
2023-02-19T15:34:30.796Z,12.98
2023-02-19T15:37:05.661Z,9.43
2023-02-19T15:39:53.497Z,9.98
2023-02-19T15:42:30.508Z,8.25
2023-02-19T15:45:01.595Z,8.35
2023-02-19T15:47:42.049Z,9.20
2023-02-19T15:50:30.390Z,8.70
2023-02-19T15:53:18.709Z,9.50
2023-02-19T15:55:51.424Z,7.90
2023-02-19T15:58:33.297Z,9.73
2023-02-19T16:01:06.102Z,7.72
2023-02-19T16:03:33.145Z,8.23
2023-02-19T16:06:11.514Z,7.97
2023-02-19T16:08:40.903Z,12.77
2023-02-19T16:11:28.057Z,12.07
2023-02-19T16:14:33.453Z,11.38
2023-02-19T16:17:07.470Z,8.93
2023-02-19T16:19:42.829Z,12.85
2023-02-19T16:22:12.241Z,11.75
2023-02-19T16:24:51.325Z,12.25
2023-02-19T16:27:34.836Z,10.93
2023-02-19T16:30:26.802Z,13.57
2023-02-19T16:33:36.958Z,20.70
2023-02-19T16:36:21.884Z,18.88
2023-02-19T16:39:09.337Z,17.35
2023-02-19T16:41:48.131Z,24.35
2023-02-19T16:44:21.085Z,30.85
2023-02-19T16:46:49.864Z,22.10
2023-02-19T16:49:16.916Z,19.30
2023-02-19T16:51:45.092Z,20.38
2023-02-19T16:54:12.732Z,20.20
2023-02-19T16:56:39.781Z,23.35
2023-02-19T16:59:09.599Z,33.10
2023-02-19T17:01:40.984Z,35.25
2023-02-19T17:04:11.721Z,42.67
2023-02-19T17:09:08.595Z,26.70
2023-02-19T17:11:36.436Z,29.60
2023-02-19T17:14:03.779Z,35.42
2023-02-19T17:16:40.575Z,29.83
2023-02-19T17:19:17.389Z,32.47
2023-02-19T17:21:45.492Z,32.78
2023-02-19T17:24:19.450Z,29.88
2023-02-19T17:26:46.527Z,36.50
2023-02-19T17:29:15.296Z,39.45
2023-02-19T17:31:42.285Z,36.97
2023-02-19T17:34:09.347Z,33.90
2023-02-19T17:36:38.101Z,35.35
2023-02-19T17:39:12.141Z,32.40
2023-02-19T17:41:39.225Z,35.15
2023-02-19T17:44:06.133Z,36.38
2023-02-19T17:46:34.128Z,31.30
2023-02-19T17:49:01.082Z,31.25
2023-02-19T17:51:28.218Z,37.60
2023-02-19T17:53:55.285Z,37.78
2023-02-19T17:56:28.348Z,36.45
2023-02-19T17:58:56.905Z,32.58
2023-02-19T18:01:24.626Z,34.55
2023-02-19T18:03:52.153Z,27.17
2023-02-19T18:06:19.296Z,22.58
2023-02-19T18:08:48.377Z,23.60
2023-02-19T18:11:15.508Z,24.08
2023-02-19T18:13:42.712Z,21.30
2023-02-19T18:16:10.083Z,22.92
2023-02-19T18:18:37.308Z,21.73
2023-02-19T18:21:07.859Z,21.08
2023-02-19T18:23:35.001Z,19.58
2023-02-19T18:26:02.244Z,21.30
2023-02-19T18:28:29.741Z,23.40
2023-02-19T18:30:56.766Z,22.42
2023-02-19T18:33:23.832Z,23.30
2023-02-19T18:35:50.977Z,25.95
2023-02-19T18:38:18.510Z,26.30
2023-02-19T18:40:46.578Z,24.85
2023-02-19T18:43:13.445Z,27.02
2023-02-19T18:45:40.330Z,20.40
2023-02-19T18:48:07.334Z,18.85
2023-02-19T18:50:35.147Z,17.48
2023-02-19T18:53:02.450Z,16.45
2023-02-19T18:55:29.575Z,24.83
2023-02-19T18:57:57.003Z,21.25
2023-02-19T19:00:26.739Z,23.98
2023-02-19T19:02:58.335Z,29.63
2023-02-19T19:05:26.406Z,28.90
2023-02-19T19:07:59.516Z,28.05
2023-02-19T19:10:27.158Z,23.80
2023-02-19T19:12:54.542Z,23.38
2023-02-19T19:15:22.452Z,23.60
2023-02-19T19:17:49.878Z,28.52
2023-02-19T19:20:19.179Z,21.77
2023-02-19T19:22:46.399Z,23.98
2023-02-19T19:25:13.256Z,23.80
2023-02-19T19:27:40.152Z,22.92
2023-02-19T19:30:08.262Z,22.33
2023-02-19T19:32:35.322Z,23.75
2023-02-19T19:35:02.195Z,20.67
2023-02-19T19:37:29.398Z,22.60
2023-02-19T19:39:58.102Z,26.80
2023-02-19T19:42:25.172Z,27.60
2023-02-19T19:44:52.214Z,28.42
2023-02-19T19:47:19.206Z,27.42
2023-02-19T19:49:47.301Z,27.67
2023-02-19T19:52:16.944Z,29.80
2023-02-19T19:54:43.912Z,33.28
2023-02-19T19:57:11.421Z,29.63
2023-02-19T19:59:39.658Z,28.67
2023-02-19T20:02:07.934Z,26.55
2023-02-19T20:04:34.908Z,26.27
2023-02-19T20:07:02.432Z,30.95
2023-02-19T20:09:29.520Z,30.45
2023-02-19T20:11:56.809Z,28.17
2023-02-19T20:14:24.996Z,31.83
2023-02-19T20:16:52.632Z,34.88
2023-02-19T20:19:20.801Z,30.90
2023-02-19T20:21:52.956Z,32.22
2023-02-19T20:24:26.123Z,38.58
2023-02-19T20:27:02.192Z,43.22
2023-02-19T20:29:31.678Z,39.38
2023-02-19T20:32:00.196Z,38.33
2023-02-19T20:34:27.282Z,39.72
2023-02-19T20:36:54.597Z,39.65
2023-02-19T20:39:22.819Z,38.90
2023-02-19T20:41:51.924Z,44.38
2023-02-19T20:44:19.851Z,50.47
2023-02-19T20:46:49.667Z,48.55
2023-02-19T20:49:19.105Z,46.13
2023-02-19T20:51:52.143Z,45.75
2023-02-19T20:54:22.423Z,45.50
2023-02-19T20:56:53.273Z,48.58
2023-02-19T21:01:49.844Z,54.72
2023-02-19T21:04:18.497Z,51.53
2023-02-19T21:06:46.269Z,52.88
2023-02-19T21:09:13.210Z,56.00
2023-02-19T21:11:40.465Z,48.38
2023-02-19T21:14:07.614Z,40.97
2023-02-19T21:16:35.016Z,35.15
2023-02-19T21:19:02.547Z,35.58
2023-02-19T21:21:31.591Z,30.23
2023-02-19T21:24:00.155Z,24.15
2023-02-19T21:26:37.440Z,24.42
2023-02-19T21:29:08.003Z,26.20
2023-02-19T21:31:43.484Z,26.35
2023-02-19T21:34:14.329Z,33.13
2023-02-19T21:36:41.561Z,33.40
2023-02-19T21:39:12.166Z,32.80
2023-02-19T21:41:39.484Z,31.48
2023-02-19T21:44:06.831Z,42.17
2023-02-19T21:46:34.707Z,38.88
2023-02-19T21:49:02.354Z,41.33
2023-02-19T21:51:38.064Z,40.58
2023-02-19T21:54:07.041Z,46.20
2023-02-19T21:56:36.550Z,43.78
2023-02-19T21:59:04.034Z,37.78
2023-02-19T22:01:33.621Z,40.97
2023-02-19T22:04:01.302Z,40.20
2023-02-19T22:06:30.619Z,38.10
2023-02-19T22:08:59.066Z,38.97
2023-02-19T22:11:26.292Z,40.45
2023-02-19T22:13:53.551Z,39.95
2023-02-19T22:16:21.019Z,43.53
2023-02-19T22:18:56.268Z,39.53
2023-02-19T22:21:25.685Z,37.08
2023-02-19T22:23:54.051Z,42.75
2023-02-19T22:26:26.140Z,37.42
2023-02-19T22:28:53.380Z,41.13
2023-02-19T22:31:23.248Z,41.97
2023-02-19T22:33:50.440Z,41.60
2023-02-19T22:36:26.129Z,37.72
2023-02-19T22:38:53.506Z,42.92
2023-02-19T22:41:21.182Z,48.20
2023-02-19T22:43:48.536Z,47.28
2023-02-19T22:46:18.876Z,44.50
2023-02-19T22:48:46.272Z,43.28
2023-02-19T22:51:18.384Z,41.70
2023-02-19T22:53:49.197Z,46.45
2023-02-19T22:56:17.902Z,41.50
2023-02-19T22:58:45.018Z,37.65
2023-02-19T23:01:14.103Z,34.13
2023-02-19T23:03:55.156Z,36.45
2023-02-19T23:06:25.361Z,33.15
2023-02-19T23:08:53.794Z,29.52
2023-02-19T23:11:25.812Z,30.42
2023-02-19T23:13:53.440Z,33.83
2023-02-19T23:16:20.606Z,32.58
2023-02-19T23:18:48.140Z,31.55
2023-02-19T23:21:16.178Z,22.13
2023-02-19T23:23:44.832Z,21.17
2023-02-19T23:26:12.996Z,18.02
2023-02-19T23:28:41.956Z,15.90
2023-02-19T23:31:08.908Z,13.43
2023-02-19T23:33:36.076Z,12.60
2023-02-19T23:36:06.436Z,13.20
2023-02-19T23:38:33.710Z,11.43
2023-02-19T23:41:03.763Z,11.63
2023-02-19T23:43:30.601Z,11.07
2023-02-19T23:45:57.478Z,11.35
2023-02-19T23:48:24.422Z,10.45
2023-02-19T23:50:51.209Z,10.85
2023-02-19T23:53:18.045Z,9.93
2023-02-19T23:55:44.809Z,8.00
2023-02-19T23:58:11.925Z,10.68
